Terminal Aerodrome Forecast
Issued by NWS Blacksburg, VA

Home | Current Version | Previous Version | Text Only | Print | Product List | Glossary On
Versions: 1 2 3 4 5 6 7 8 9 10 11 12 13 14 15 16
000
FTUS41 KRNK 272325
TAFROA
TAF
KROA 272325Z 2800/2824 21006KT P6SM BKN045
      TEMPO 2800/2801 4SM SHRA OVC030
     FM280400 00000KT P6SM SCT045
      TEMPO 2810/2812 3SM BR
     FM281800 17006KT P6SM FEW130=

USA.gov is the U.S. government's official web portal to all federal, state and local government web resources and services.